Terminal Aerodrome Forecast
Issued by NWS

Current Version | Previous Version | Graphics & Text | Print | Product List | Glossary On
Versions: 1 2 3 4 5 6 7 8 9 10 11 12 13 14 15 16 17 18 19 20 21 22 23 24
000
FTUS41 KILN 241100 RRA
TAFLUK
TAF
KLUK 241140Z 2412/2512 19015G25KT P6SM VCSH SCT022 OVC030
      TEMPO 2413/2415 24020G30KT 5SM -SHRA BR OVC025
     FM241700 24020G30KT P6SM OVC030
     FM250000 24011G22KT P6SM BKN030
     FM250500 25009KT P6SM SCT035=

USA.gov is the U.S. government's official web portal to all federal, state and local government web resources and services.